Time;durP1;ratioP1;P1;durP2;ratioP2;P2;SDS_P1;SDS_P2;PMS_P1;PMS_P2;Temp;Humidity;BMP_temperature;BMP_pressure;BME280_temperature;BME280_humidity;BME280_pressure;Samples;Min_cycle;Max_cycle;Signal;HPM_P1;HPM_P2
2021/01/28 00:01:16;;;;;;;6.58;4.87;;;;;;;2.92;65.01;99138.15;1723403;83;21550;-58
2021/01/28 00:03:44;;;;;;;5.90;5.12;;;;;;;2.93;65.10;99149.17;1719709;83;20975;-58
2021/01/28 00:06:12;;;;;;;8.90;4.80;;;;;;;2.91;64.93;99162.58;1723486;83;20992;-58
2021/01/28 00:08:42;;;;;;;8.40;4.67;;;;;;;2.90;64.87;99159.08;1719681;83;21066;-58
2021/01/28 00:11:10;;;;;;;9.30;4.47;;;;;;;2.84;64.93;99159.53;1723339;83;20984;-58
2021/01/28 00:13:39;;;;;;;7.55;4.62;;;;;;;2.84;64.94;99158.72;1719547;83;21394;-58
2021/01/28 00:16:07;;;;;;;6.55;4.30;;;;;;;2.85;65.00;99129.45;1723387;83;20960;-58
2021/01/28 00:18:35;;;;;;;9.75;4.62;;;;;;;2.86;65.08;99109.58;1719861;83;20939;-58
2021/01/28 00:21:06;;;;;;;6.22;4.15;;;;;;;2.86;65.04;99096.15;1723305;83;20941;-60
2021/01/28 00:23:34;;;;;;;5.87;4.30;;;;;;;2.85;64.97;99105.27;1719753;83;21094;-59
2021/01/28 00:26:02;;;;;;;6.30;4.12;;;;;;;2.85;64.87;99124.08;1723395;83;21219;-58
2021/01/28 00:28:30;;;;;;;6.65;4.70;;;;;;;2.84;64.82;99122.45;1719611;83;20999;-60
2021/01/28 00:30:58;;;;;;;4.90;3.90;;;;;;;2.88;64.88;99126.79;1723322;82;20940;-59
2021/01/28 00:33:27;;;;;;;5.37;3.85;;;;;;;2.85;64.91;99129.45;1719887;83;21518;-59
2021/01/28 00:35:56;;;;;;;5.45;4.08;;;;;;;2.85;64.92;99126.23;1723440;82;20928;-58
2021/01/28 00:38:30;;;;;;;6.53;3.72;;;;;;;2.91;64.83;99126.31;1719664;83;21383;-59
2021/01/28 00:40:58;;;;;;;3.75;3.27;;;;;;;2.96;64.81;99109.74;1723389;82;21518;-58
2021/01/28 00:43:27;;;;;;;3.90;3.25;;;;;;;3.00;64.59;99102.02;1719696;83;20951;-57
2021/01/28 00:45:56;;;;;;;5.58;3.50;;;;;;;2.99;64.46;99105.73;1723530;82;20952;-59
2021/01/28 00:48:25;;;;;;;4.15;3.67;;;;;;;2.97;64.41;99104.64;1719711;82;20968;-60
2021/01/28 00:50:54;;;;;;;4.97;3.52;;;;;;;2.95;64.43;99106.77;1715288;82;21349;-60
2021/01/28 00:53:22;;;;;;;4.67;3.92;;;;;;;2.96;64.24;99104.90;1712586;83;21598;-58
2021/01/28 00:55:50;;;;;;;5.37;3.67;;;;;;;2.96;64.35;99090.93;1701613;84;21126;-60
2021/01/28 00:58:28;;;;;;;4.10;3.60;;;;;;;3.03;64.30;99088.06;1873553;75;22668;-60
2021/01/28 01:00:56;;;;;;;5.75;4.15;;;;;;;2.96;64.19;99085.56;1841575;77;20928;-60
2021/01/28 01:03:25;;;;;;;4.10;3.60;;;;;;;2.95;64.18;99076.41;1841299;78;21198;-59
2021/01/28 01:05:53;;;;;;;4.05;2.92;;;;;;;2.93;64.21;99082.54;1841418;78;20994;-59
2021/01/28 01:08:29;;;;;;;4.67;3.47;;;;;;;2.92;64.20;99070.17;1841431;77;20994;-61
2021/01/28 01:11:08;;;;;;;4.77;3.53;;;;;;;2.92;64.29;99064.27;1889982;75;22932;-60
2021/01/28 01:13:39;;;;;;;5.72;3.98;;;;;;;2.89;64.39;99068.81;1860707;77;21006;-59
2021/01/28 01:16:11;;;;;;;4.80;3.77;;;;;;;2.88;64.35;99071.19;1859102;77;21366;-59
2021/01/28 01:18:41;;;;;;;4.30;3.52;;;;;;;2.88;64.35;99075.22;1860746;77;20950;-65
2021/01/28 01:21:09;;;;;;;4.83;3.80;;;;;;;2.89;64.31;99069.31;1860826;77;20951;-59
2021/01/28 01:23:37;;;;;;;5.62;3.87;;;;;;;2.89;64.39;99056.72;1828011;77;21596;-59
2021/01/28 01:26:06;;;;;;;5.85;4.20;;;;;;;2.90;64.40;99055.66;1858591;77;21052;-60
2021/01/28 01:28:34;;;;;;;4.65;3.58;;;;;;;2.92;64.40;99059.42;1860893;77;21134;-60
2021/01/28 01:31:07;;;;;;;4.95;3.72;;;;;;;2.93;64.49;99070.45;1859261;77;21040;-58
2021/01/28 01:33:36;;;;;;;3.70;3.27;;;;;;;2.94;64.36;99063.51;1860917;77;21457;-59
2021/01/28 01:36:09;;;;;;;5.70;3.90;;;;;;;2.94;64.37;99061.33;1860539;77;21112;-60
2021/01/28 01:38:44;;;;;;;;;;;;;;;2.95;64.39;99059.76;1849638;77;20927;-59
2021/01/28 01:41:12;;;;;;;4.67;3.62;;;;;;;2.97;64.34;99051.44;1795526;78;21202;-59
2021/01/28 01:43:42;;;;;;;4.45;3.40;;;;;;;2.96;64.30;99049.28;1794983;78;21150;-58
2021/01/28 01:46:12;;;;;;;4.95;3.45;;;;;;;2.96;64.29;99054.66;1827048;78;21002;-58
2021/01/28 01:48:48;;;;;;;4.40;3.05;;;;;;;2.98;64.20;99046.34;1795968;78;21018;-59
2021/01/28 01:51:22;;;;;;;4.90;3.47;;;;;;;3.00;64.18;99042.36;1827080;78;21010;-58
2021/01/28 01:54:04;;;;;;;4.87;3.90;;;;;;;3.01;64.08;99039.95;1827058;78;21381;-59
2021/01/28 01:56:40;;;;;;;5.58;3.90;;;;;;;3.03;64.10;99038.35;1826881;78;20918;-59
2021/01/28 01:59:21;;;;;;;5.85;4.20;;;;;;;3.03;63.94;99029.76;1827115;78;21006;-59
2021/01/28 02:02:11;;;;;;;4.53;3.70;;;;;;;3.01;63.94;99028.39;1827071;78;21579;-58
2021/01/28 02:05:01;;;;;;;5.50;4.08;;;;;;;3.01;63.93;99017.11;1826273;78;21029;-59
2021/01/28 02:07:33;;;;;;;5.00;3.75;;;;;;;3.02;63.85;99007.17;1782682;78;22182;-58
2021/01/28 02:10:12;;;;;;;4.90;3.35;;;;;;;3.02;63.88;98989.71;1790708;78;21059;-59
2021/01/28 02:12:42;;;;;;;6.55;4.55;;;;;;;3.02;63.79;99002.61;1806715;78;20934;-58
2021/01/28 02:15:13;;;;;;;5.65;3.65;;;;;;;2.97;63.84;99006.57;1828742;78;21480;-58
2021/01/28 02:17:44;;;;;;;5.58;4.37;;;;;;;2.97;63.81;98999.05;1829671;78;21092;-58
2021/01/28 02:20:46;;;;;;;4.55;3.67;;;;;;;2.94;63.99;99006.25;1830017;78;21152;-59
2021/01/28 02:23:46;;;;;;;6.08;4.30;;;;;;;2.93;63.86;99011.34;1828915;78;21033;-59
2021/01/28 02:26:15;;;;;;;5.45;3.10;;;;;;;2.97;63.80;98997.70;1828295;78;20934;-58
2021/01/28 02:28:44;;;;;;;3.75;3.45;;;;;;;2.96;63.71;98977.28;1829479;78;20895;-58
2021/01/28 02:31:12;;;;;;;4.50;3.33;;;;;;;2.94;63.83;98972.16;1829538;78;20930;-59
2021/01/28 02:33:54;;;;;;;4.85;3.60;;;;;;;2.92;63.75;98975.61;1800214;78;22347;-59
2021/01/28 02:36:39;;;;;;;4.50;3.55;;;;;;;2.92;63.62;99009.19;1829257;78;21108;-58
2021/01/28 02:39:27;;;;;;;5.58;3.77;;;;;;;2.91;63.49;99032.28;1829523;77;21477;-59
2021/01/28 02:42:24;;;;;;;4.35;3.30;;;;;;;2.92;63.40;99040.09;1829565;78;21179;-60
2021/01/28 02:44:53;;;;;;;4.50;3.85;;;;;;;2.91;63.37;99038.47;1828771;78;21484;-59
2021/01/28 02:47:40;;;;;;;5.53;3.98;;;;;;;2.96;63.40;99040.41;1829542;78;21398;-59
2021/01/28 02:50:13;;;;;;;5.12;4.05;;;;;;;2.98;63.30;99036.94;1826354;78;21080;-58
2021/01/28 02:52:41;;;;;;;4.47;3.98;;;;;;;2.95;63.29;99026.17;1829553;78;21009;-58
2021/01/28 02:55:12;;;;;;;6.15;4.55;;;;;;;2.94;63.24;99023.71;1829307;78;20922;-58
2021/01/28 02:57:41;;;;;;;4.40;3.80;;;;;;;2.94;63.29;99028.58;1799462;78;21560;-58
2021/01/28 03:00:17;;;;;;;5.78;4.60;;;;;;;2.93;63.21;99036.33;1829501;78;21358;-58
2021/01/28 03:02:45;;;;;;;7.47;4.30;;;;;;;2.92;63.18;99028.00;1799558;78;20974;-59
2021/01/28 03:05:15;;;;;;;5.00;3.85;;;;;;;2.95;63.14;99022.67;1829313;78;20985;-60
2021/01/28 03:07:43;;;;;;;5.67;4.03;;;;;;;2.96;63.10;99019.73;1829346;78;20974;-59
2021/01/28 03:10:12;;;;;;;5.85;4.90;;;;;;;2.95;63.11;99011.39;1828280;78;20954;-59
2021/01/28 03:12:48;;;;;;;6.60;4.62;;;;;;;2.94;63.12;98999.53;1823194;78;21199;-59
2021/01/28 03:15:23;;;;;;;9.08;5.40;;;;;;;2.94;63.13;98984.25;1807110;78;21010;-59
2021/01/28 03:17:54;;;;;;;6.05;4.53;;;;;;;2.94;63.13;98997.69;1826135;78;20914;-58
2021/01/28 03:20:23;;;;;;;7.33;5.17;;;;;;;2.96;63.12;98993.40;1826269;78;20926;-56
2021/01/28 03:22:52;;;;;;;5.67;5.03;;;;;;;2.96;63.09;99000.92;1826375;78;21528;-58
2021/01/28 03:25:25;;;;;;;8.35;5.10;;;;;;;2.96;63.01;98996.89;1781907;78;21200;-58
2021/01/28 03:27:53;;;;;;;6.40;5.35;;;;;;;2.98;62.89;98994.76;1826388;78;20959;-57
2021/01/28 03:30:31;;;;;;;7.97;6.12;;;;;;;2.99;63.03;98988.85;1826101;78;21112;-59
2021/01/28 03:33:00;;;;;;;7.95;5.50;;;;;;;3.00;62.95;98989.97;1826196;78;20990;-62
2021/01/28 03:35:29;;;;;;;8.48;5.97;;;;;;;3.03;62.84;99008.27;1826139;78;20951;-58
2021/01/28 03:37:59;;;;;;;8.08;6.10;;;;;;;3.03;62.78;99014.17;1819644;77;22346;-56
2021/01/28 03:40:30;;;;;;;7.35;5.83;;;;;;;3.01;62.75;99016.30;1826409;78;20976;-56
2021/01/28 03:42:59;;;;;;;7.55;5.42;;;;;;;3.01;62.77;99001.52;1826198;78;21001;-56
2021/01/28 03:45:28;;;;;;;8.43;6.47;;;;;;;3.00;62.78;98996.69;1826161;78;21024;-56
2021/01/28 03:47:57;;;;;;;8.75;5.87;;;;;;;2.98;62.66;98998.79;1825988;78;21016;-55
2021/01/28 03:50:39;;;;;;;8.45;6.53;;;;;;;2.97;62.71;98998.52;1822982;78;21912;-56
2021/01/28 03:53:11;;;;;;;8.45;6.15;;;;;;;2.98;62.71;99007.38;1824661;78;20980;-59
2021/01/28 03:55:59;;;;;;;7.90;6.33;;;;;;;2.98;62.77;99004.16;1797951;78;20997;-57
2021/01/28 03:58:29;;;;;;;9.80;6.37;;;;;;;2.97;62.82;98999.05;1823827;78;21004;-57
2021/01/28 04:01:16;;;;;;;8.70;5.62;;;;;;;2.99;62.78;99008.50;1824039;77;20929;-57
2021/01/28 04:03:45;;;;;;;6.87;5.87;;;;;;;2.98;62.83;99008.19;1823881;78;21201;-57
2021/01/28 04:06:30;;;;;;;9.40;6.13;;;;;;;3.04;62.86;99001.85;1873366;75;22776;-57
2021/01/28 04:09:12;;;;;;;7.55;6.05;;;;;;;3.01;62.95;99005.55;1840463;78;20931;-57
2021/01/28 04:11:47;;;;;;;11.50;7.12;;;;;;;2.97;62.90;99001.73;1840788;77;25190;-57
2021/01/28 04:14:17;;;;;;;8.30;5.78;;;;;;;2.97;62.88;99007.92;1827332;77;20884;-56
2021/01/28 04:16:45;;;;;;;7.12;5.78;;;;;;;2.96;62.91;99004.14;1841074;78;20944;-57
2021/01/28 04:19:15;;;;;;;9.18;6.08;;;;;;;2.95;62.90;99006.55;1841364;77;21026;-59
2021/01/28 04:21:44;;;;;;;7.37;5.58;;;;;;;2.95;62.90;99006.02;1841258;78;21537;-65
2021/01/28 04:24:12;;;;;;;9.95;6.08;;;;;;;2.97;62.92;98997.70;1841379;77;21194;-60
2021/01/28 04:26:50;;;;;;;9.98;6.92;;;;;;;2.96;62.82;98988.83;1840779;78;20935;-61
2021/01/28 04:29:20;;;;;;;10.45;6.80;;;;;;;2.95;62.80;98990.44;1841242;77;21001;-61
2021/01/28 04:31:50;;;;;;;9.35;6.90;;;;;;;2.92;62.93;99005.16;1838402;77;20995;-61
2021/01/28 04:34:20;;;;;;;11.78;6.85;;;;;;;2.91;63.01;99003.54;1838883;77;20927;-62
2021/01/28 04:36:50;;;;;;;10.78;6.87;;;;;;;2.89;63.12;98996.27;1841370;77;21256;-62
2021/01/28 04:39:19;;;;;;;10.60;7.15;;;;;;;2.93;63.22;98993.88;1817032;78;21466;-62
2021/01/28 04:41:49;;;;;;;12.13;7.37;;;;;;;2.94;63.29;98981.56;1808402;79;20920;-61
2021/01/28 04:44:17;;;;;;;11.20;6.97;;;;;;;2.99;63.28;98976.77;1808232;78;21597;-61
2021/01/28 04:47:19;;;;;;;11.73;7.77;;;;;;;3.01;63.24;98965.25;1873272;75;23894;-61
2021/01/28 04:49:54;;;;;;;10.68;6.55;;;;;;;2.93;63.38;98962.45;1841177;78;21466;-61
2021/01/28 04:52:32;;;;;;;10.88;6.37;;;;;;;2.89;63.49;98952.45;1841473;77;21167;-61
2021/01/28 04:55:09;;;;;;;9.98;6.45;;;;;;;2.86;63.63;98959.95;1836164;77;20999;-60
2021/01/28 04:57:39;;;;;;;10.40;6.35;;;;;;;2.85;63.63;98955.65;1841522;78;20955;-61
2021/01/28 05:00:09;;;;;;;13.30;6.78;;;;;;;2.88;63.69;98954.86;1841215;78;20944;-62
2021/01/28 05:02:39;;;;;;;10.90;7.20;;;;;;;2.90;63.70;98946.84;1841109;77;20939;-62
2021/01/28 05:05:25;;;;;;;10.93;6.28;;;;;;;2.89;63.63;98939.86;1841266;77;21356;-62
2021/01/28 05:07:58;;;;;;;12.25;6.45;;;;;;;2.82;63.79;98938.67;1839266;77;20954;-59
2021/01/28 05:10:46;;;;;;;9.48;6.78;;;;;;;2.77;63.98;98943.98;1769379;78;21573;-61
2021/01/28 05:13:34;;;;;;;12.80;6.25;;;;;;;2.76;64.09;98945.05;1827350;77;21042;-62
2021/01/28 05:16:33;;;;;;;13.08;7.47;;;;;;;2.74;64.16;98946.38;1827837;77;20983;-62
2021/01/28 05:19:12;;;;;;;9.68;5.25;;;;;;;2.75;64.19;98956.86;1787192;78;21571;-62
2021/01/28 05:21:48;;;;;;;14.15;7.08;;;;;;;2.73;64.26;98952.78;1778273;78;21950;-61
2021/01/28 05:24:44;;;;;;;17.15;7.17;;;;;;;2.75;64.30;98956.86;1840280;78;20939;-62
2021/01/28 05:27:32;;;;;;;14.50;7.33;;;;;;;2.78;64.26;98955.00;1841138;78;21010;-62
2021/01/28 05:30:05;;;;;;;10.08;6.65;;;;;;;2.78;64.34;98946.12;1841549;77;20912;-63
2021/01/28 05:32:42;;;;;;;10.95;6.33;;;;;;;2.78;64.38;98948.28;1841165;78;21366;-61
2021/01/28 05:35:30;;;;;;;12.00;6.97;;;;;;;2.81;64.47;98951.02;1841165;77;21030;-60
2021/01/28 05:38:24;;;;;;;11.80;6.87;;;;;;;2.86;64.46;98952.44;1835540;78;21082;-59
2021/01/28 05:41:26;;;;;;;11.70;7.07;;;;;;;2.88;64.53;98951.64;1807664;79;21130;-62
2021/01/28 05:44:17;;;;;;;13.43;7.53;;;;;;;2.92;64.55;98957.34;1819975;77;23301;-63
2021/01/28 05:47:20;;;;;;;11.43;6.97;;;;;;;2.90;64.43;98956.78;1809810;78;21067;-62
2021/01/28 05:49:51;;;;;;;11.28;7.00;;;;;;;2.90;64.40;98959.47;1821027;78;22043;-58
2021/01/28 05:52:30;;;;;;;13.50;8.00;;;;;;;2.87;64.41;98958.08;1823221;78;20973;-60
2021/01/28 05:55:12;;;;;;;13.62;6.90;;;;;;;2.83;64.60;98955.60;1822488;78;21056;-60
2021/01/28 05:58:06;;;;;;;9.90;7.08;;;;;;;2.83;64.63;98947.55;1822114;78;20977;-66
2021/01/28 06:01:02;;;;;;;11.10;6.75;;;;;;;2.82;64.72;98955.33;1823111;78;20941;-59
2021/01/28 06:03:58;;;;;;;11.83;7.42;;;;;;;2.84;64.70;98963.97;1822737;78;21195;-62
2021/01/28 06:06:59;;;;;;;10.40;6.50;;;;;;;2.87;64.64;98951.36;1873177;75;22679;-62
2021/01/28 06:10:01;;;;;;;9.30;5.70;;;;;;;2.84;64.62;98954.03;1823519;77;20927;-61
2021/01/28 06:13:19;;;;;;;10.20;6.90;;;;;;;2.88;64.54;98943.58;1840171;78;21379;-62
2021/01/28 06:16:11;;;;;;;9.98;5.95;;;;;;;2.88;64.55;98943.58;1840828;78;21014;-63
2021/01/28 06:19:02;;;;;;;13.75;7.17;;;;;;;2.92;64.50;98954.12;1840739;77;21010;-63
2021/01/28 06:21:57;;;;;;;10.82;7.30;;;;;;;2.94;64.48;98954.70;1840604;78;21057;-62
2021/01/28 06:25:17;;;;;;;11.95;7.45;;;;;;;2.96;64.37;98947.72;1814308;77;21434;-62
2021/01/28 06:27:57;;;;;;;10.03;7.12;;;;;;;2.95;64.42;98940.20;1841148;78;22314;-60
2021/01/28 06:30:58;;;;;;;9.40;7.17;;;;;;;2.92;64.43;98932.63;1841115;78;20975;-62
2021/01/28 06:33:52;;;;;;;11.55;6.85;;;;;;;2.95;64.33;98934.02;1835558;77;21031;-60
2021/01/28 06:36:54;;;;;;;10.50;6.95;;;;;;;2.90;64.40;98932.61;1840576;78;21151;-62
2021/01/28 06:39:39;;;;;;;11.03;7.95;;;;;;;2.92;64.37;98939.34;1809044;78;21209;-61
2021/01/28 06:42:34;;;;;;;14.10;8.43;;;;;;;2.88;64.37;98932.02;1807763;79;21204;-62
2021/01/28 06:45:12;;;;;;;8.68;6.85;;;;;;;2.87;64.37;98920.47;1805976;78;21156;-62
2021/01/28 06:48:14;;;;;;;13.03;8.88;;;;;;;2.83;64.51;98917.46;1807746;78;21053;-62
2021/01/28 06:51:03;;;;;;;11.53;7.67;;;;;;;2.83;64.46;98912.09;1806885;78;21133;-62
2021/01/28 06:54:06;;;;;;;11.48;7.80;;;;;;;2.90;64.38;98912.45;1807116;78;21054;-63
2021/01/28 06:57:10;;;;;;;10.72;7.62;;;;;;;2.93;64.35;98907.38;1808230;78;21132;-63
2021/01/28 07:00:10;;;;;;;9.78;7.22;;;;;;;2.95;64.29;98898.55;1803514;78;21126;-63
2021/01/28 07:02:48;;;;;;;11.38;7.62;;;;;;;2.99;64.17;98902.38;1808402;79;21532;-63
2021/01/28 07:05:41;;;;;;;12.53;7.20;;;;;;;2.99;64.18;98900.19;1779957;78;20991;-63
2021/01/28 07:08:28;;;;;;;13.38;7.83;;;;;;;2.94;64.12;98909.03;1802635;79;21047;-64
2021/01/28 07:11:41;;;;;;;11.65;8.00;;;;;;;2.89;64.34;98911.65;1797361;79;25042;-60
2021/01/28 07:14:17;;;;;;;12.53;8.50;;;;;;;2.91;64.41;98918.11;1776625;78;22876;-62
2021/01/28 07:17:17;;;;;;;12.15;8.18;;;;;;;2.88;64.52;98919.41;1695151;82;20946;-61
2021/01/28 07:19:55;;;;;;;11.63;8.78;;;;;;;2.94;64.52;98920.28;1749345;82;21376;-61
2021/01/28 07:22:38;;;;;;;11.30;7.22;;;;;;;2.95;64.52;98906.61;1720027;82;20949;-62
2021/01/28 07:25:32;;;;;;;13.15;7.67;;;;;;;2.93;64.57;98897.16;1748963;82;21049;-62
2021/01/28 07:28:22;;;;;;;11.87;7.40;;;;;;;2.94;64.83;98889.38;1889766;76;22681;-62
2021/01/28 07:30:53;;;;;;;11.03;8.05;;;;;;;2.97;64.87;98896.95;1860411;77;21065;-61
2021/01/28 07:33:30;;;;;;;12.58;8.40;;;;;;;3.04;64.71;98905.12;1860305;77;22339;-63
2021/01/28 07:36:28;;;;;;;11.43;8.23;;;;;;;3.07;64.77;98905.94;1816329;77;21650;-55
2021/01/28 07:39:34;;;;;;;10.58;7.60;;;;;;;3.10;64.84;98911.36;1780948;76;21206;-56
2021/01/28 07:42:25;;;;;;;11.80;7.65;;;;;;;3.12;64.93;98929.38;1858638;77;20965;-55
2021/01/28 07:45:33;;;;;;;11.33;7.45;;;;;;;3.09;65.04;98935.23;1858230;77;21544;-55
2021/01/28 07:48:18;;;;;;;15.03;8.83;;;;;;;3.12;65.24;98941.47;1844854;77;21387;-61
2021/01/28 07:51:31;;;;;;;13.10;8.83;;;;;;;3.18;65.40;98942.34;1873179;75;22808;-58
2021/01/28 07:54:02;;;;;;;11.30;8.50;;;;;;;3.19;65.33;98944.77;1841051;78;20975;-60
2021/01/28 07:56:44;;;;;;;14.93;9.30;;;;;;;3.19;65.32;98939.39;1841002;77;22281;-64
2021/01/28 07:59:31;;;;;;;14.25;8.35;;;;;;;3.21;65.33;98919.00;1840931;78;20899;-58
2021/01/28 08:02:17;;;;;;;13.72;9.53;;;;;;;3.25;65.46;98918.25;1863767;75;21021;-57
2021/01/28 08:04:57;;;;;;;14.80;9.10;;;;;;;3.27;65.42;98901.33;1815226;77;20915;-57
2021/01/28 08:07:29;;;;;;;15.75;9.00;;;;;;;3.28;65.51;98899.45;1844556;76;20966;-61
2021/01/28 08:10:04;;;;;;;14.47;9.08;;;;;;;3.31;65.41;98916.42;1847563;76;22256;-62
2021/01/28 08:12:40;;;;;;;12.63;8.20;;;;;;;3.29;65.45;98911.81;1808075;78;20994;-58
2021/01/28 08:15:17;;;;;;;15.35;9.10;;;;;;;3.26;65.54;98905.63;1786343;79;21579;-61
2021/01/28 08:17:45;;;;;;;14.30;8.45;;;;;;;3.24;65.62;98907.20;1750900;79;20929;-64
2021/01/28 08:20:17;;;;;;;13.50;9.00;;;;;;;3.23;65.67;98905.58;1772726;79;21204;-60
2021/01/28 08:22:59;;;;;;;15.03;9.05;;;;;;;3.25;65.76;98908.03;1778125;79;21195;-58
2021/01/28 08:25:32;;;;;;;14.68;9.23;;;;;;;3.28;65.78;98904.28;1772001;79;21016;-59
2021/01/28 08:28:13;;;;;;;14.40;9.75;;;;;;;3.30;65.70;98902.18;1771746;78;22192;-58
2021/01/28 08:30:42;;;;;;;14.28;9.83;;;;;;;3.30;65.77;98908.09;1747617;80;21083;-59
2021/01/28 08:33:23;;;;;;;17.65;10.85;;;;;;;3.29;65.74;98913.97;1790649;79;21171;-57
2021/01/28 08:35:54;;;;;;;15.75;10.03;;;;;;;3.32;65.72;98909.45;1779959;79;21388;-59
2021/01/28 08:38:32;;;;;;;14.35;10.00;;;;;;;3.34;65.65;98902.46;1775852;79;22313;-56
2021/01/28 08:41:27;;;;;;;15.25;10.55;;;;;;;3.37;65.61;98900.09;1753979;80;21029;-57
2021/01/28 08:44:00;;;;;;;15.35;10.18;;;;;;;3.42;65.55;98895.84;1725610;82;21582;-61
2021/01/28 08:46:28;;;;;;;16.52;11.40;;;;;;;3.45;65.54;98885.90;1747673;80;21091;-58
2021/01/28 08:49:07;;;;;;;20.57;11.50;;;;;;;3.43;65.62;98886.16;1747128;80;21341;-59
2021/01/28 08:51:39;;;;;;;15.75;10.28;;;;;;;3.48;65.60;98894.81;1736118;80;20972;-57
2021/01/28 08:54:20;;;;;;;21.87;11.22;;;;;;;3.49;65.40;98878.42;1756292;80;20965;-58
2021/01/28 08:56:49;;;;;;;16.70;10.88;;;;;;;3.49;65.34;98872.23;1750357;80;21167;-60
2021/01/28 08:59:18;;;;;;;15.28;9.58;;;;;;;3.49;65.47;98881.11;1726606;82;21102;-56
2021/01/28 09:01:49;;;;;;;18.07;10.08;;;;;;;3.49;65.49;98874.92;1755128;80;21209;-59
2021/01/28 09:06:40;;;;;;;13.03;9.03;;;;;;;3.50;65.50;98880.06;1803561;78;21993;-56
2021/01/28 09:09:16;;;;;;;11.95;8.20;;;;;;;3.50;65.51;98877.91;1797793;78;21048;-59
2021/01/28 09:11:44;;;;;;;12.20;8.78;;;;;;;3.53;65.36;98863.94;1793987;78;21384;-57
2021/01/28 09:14:30;;;;;;;11.18;7.65;;;;;;;3.54;65.43;98875.78;1793068;78;21681;-57
2021/01/28 09:17:24;;;;;;;11.10;7.35;;;;;;;3.55;65.26;98873.39;1727521;81;21522;-56
2021/01/28 09:19:59;;;;;;;12.70;7.30;;;;;;;3.57;65.26;98870.44;1735972;81;21077;-62
2021/01/28 09:22:39;;;;;;;12.00;6.83;;;;;;;3.59;65.29;98857.00;1736571;81;21555;-58
2021/01/28 09:25:20;;;;;;;8.38;5.65;;;;;;;3.57;65.33;98845.70;1735023;82;21376;-56
2021/01/28 09:28:00;;;;;;;10.48;6.37;;;;;;;3.57;65.39;98843.55;1739522;81;21094;-60
2021/01/28 09:30:35;;;;;;;8.03;5.97;;;;;;;3.54;65.46;98854.27;1725953;81;21119;-57
2021/01/28 09:33:39;;;;;;;9.03;6.05;;;;;;;3.50;65.62;98855.06;1770597;80;21647;-57
2021/01/28 09:36:27;;;;;;;9.00;6.70;;;;;;;3.48;65.73;98857.17;1754416;81;21161;-56
2021/01/28 09:39:03;;;;;;;10.45;5.47;;;;;;;3.52;65.89;98861.78;1743835;81;21571;-57
2021/01/28 09:41:45;;;;;;;8.25;5.75;;;;;;;3.55;65.95;98868.55;1749371;81;21044;-57
2021/01/28 09:44:42;;;;;;;6.67;5.20;;;;;;;3.61;65.98;98859.45;1765765;81;21083;-60
2021/01/28 09:47:23;;;;;;;9.50;6.72;;;;;;;3.66;65.88;98856.00;1744385;81;21998;-65
2021/01/28 09:50:00;;;;;;;19.10;13.53;;;;;;;3.66;65.69;98857.34;1743619;81;21186;-58
2021/01/28 09:52:36;;;;;;;11.57;8.18;;;;;;;3.65;65.69;98855.19;1744240;81;21431;-61
2021/01/28 09:55:30;;;;;;;8.40;5.50;;;;;;;3.66;65.72;98864.87;1756074;81;21028;-62
2021/01/28 09:57:58;;;;;;;6.97;4.80;;;;;;;3.64;65.57;98856.23;1743007;81;21063;-59
2021/01/28 10:00:26;;;;;;;8.25;5.25;;;;;;;3.63;65.60;98860.80;1744907;81;20989;-63
2021/01/28 10:03:01;;;;;;;8.15;5.42;;;;;;;3.63;65.58;98862.69;1749921;81;21583;-61
2021/01/28 10:05:32;;;;;;;8.38;5.83;;;;;;;3.61;65.50;98861.61;1730394;81;21580;-56
2021/01/28 10:08:02;;;;;;;6.55;4.85;;;;;;;3.55;65.65;98859.95;1697129;82;21273;-59
2021/01/28 10:10:32;;;;;;;7.95;5.03;;;;;;;3.59;65.72;98865.06;1726622;82;21585;-57
2021/01/28 10:13:04;;;;;;;8.60;5.37;;;;;;;3.58;65.68;98864.80;1697514;83;21303;-59
2021/01/28 10:15:33;;;;;;;7.45;5.40;;;;;;;3.60;65.72;98859.98;1746245;81;21587;-62
2021/01/28 10:18:04;;;;;;;6.37;4.50;;;;;;;3.63;65.85;98855.42;1743918;81;21694;-58
2021/01/28 10:20:32;;;;;;;13.45;8.50;;;;;;;3.66;65.61;98851.97;1745784;81;21111;-59
2021/01/28 10:23:02;;;;;;;6.45;4.25;;;;;;;3.62;65.54;98848.43;1743016;81;21210;-59
2021/01/28 10:25:30;;;;;;;7.85;5.45;;;;;;;3.63;65.54;98846.02;1748081;81;21499;-58
2021/01/28 10:27:59;;;;;;;7.58;5.22;;;;;;;3.63;65.49;98840.63;1735902;81;21181;-56
2021/01/28 10:30:29;;;;;;;6.95;5.20;;;;;;;3.64;65.34;98849.51;1756183;81;21256;-56
2021/01/28 10:32:59;;;;;;;6.05;4.03;;;;;;;3.61;65.40;98846.81;1760170;81;21214;-57
2021/01/28 10:35:29;;;;;;;6.20;4.22;;;;;;;3.62;65.23;98842.24;1757516;81;21056;-60
2021/01/28 10:38:00;;;;;;;6.75;4.78;;;;;;;3.63;65.13;98839.28;1756780;80;21063;-60
2021/01/28 10:40:29;;;;;;;6.35;4.35;;;;;;;3.67;65.15;98838.78;1761352;81;21177;-64
2021/01/28 10:43:05;;;;;;;7.20;5.00;;;;;;;3.67;65.05;98848.20;1761376;81;21579;-61
2021/01/28 10:45:39;;;;;;;5.80;4.15;;;;;;;3.62;65.11;98838.21;1761166;81;21040;-58
2021/01/28 10:48:09;;;;;;;4.97;3.77;;;;;;;3.61;65.35;98827.18;1756943;81;21162;-56
2021/01/28 10:50:38;;;;;;;6.00;3.87;;;;;;;3.61;65.32;98831.22;1713189;81;21101;-64
2021/01/28 10:53:06;;;;;;;6.97;4.72;;;;;;;3.63;65.29;98829.06;1743936;81;21188;-61
2021/01/28 10:55:34;;;;;;;5.60;3.90;;;;;;;3.62;65.33;98822.07;1752204;81;21247;-56
2021/01/28 10:58:02;;;;;;;6.12;4.03;;;;;;;3.62;65.30;98816.69;1744771;81;21139;-56
2021/01/28 11:00:32;;;;;;;5.20;3.95;;;;;;;3.62;65.34;98807.28;1748040;81;20942;-59
2021/01/28 11:03:01;;;;;;;7.80;4.80;;;;;;;3.63;65.40;98802.98;1760968;81;20984;-62
2021/01/28 11:05:35;;;;;;;5.03;3.42;;;;;;;3.71;65.34;98808.44;1739409;81;21211;-59
2021/01/28 11:08:05;;;;;;;7.62;4.65;;;;;;;3.74;65.12;98804.40;1716954;82;21378;-58
2021/01/28 11:10:32;;;;;;;4.80;4.08;;;;;;;3.76;65.26;98807.13;1688742;83;21425;-59
2021/01/28 11:13:01;;;;;;;4.58;2.92;;;;;;;3.83;65.10;98802.32;1710760;82;21176;-60
2021/01/28 11:15:33;;;;;;;5.33;4.03;;;;;;;3.85;64.83;98785.41;1684330;82;21104;-61
2021/01/28 11:18:06;;;;;;;6.03;3.92;;;;;;;3.86;64.71;98782.98;1730969;82;21208;-60
2021/01/28 11:20:35;;;;;;;4.00;3.25;;;;;;;3.83;64.75;98777.30;1720628;82;21294;-62
2021/01/28 11:23:03;;;;;;;10.50;7.35;;;;;;;3.87;64.88;98778.41;1693220;82;21889;-62
2021/01/28 11:25:32;;;;;;;5.40;4.05;;;;;;;3.89;64.75;98773.56;1725430;82;21216;-57
2021/01/28 11:27:59;;;;;;;7.55;3.83;;;;;;;3.89;64.62;98764.95;1671591;82;20965;-61
2021/01/28 11:30:30;;;;;;;5.75;4.00;;;;;;;3.91;64.77;98764.72;1723281;83;22277;-57
2021/01/28 11:32:58;;;;;;;5.50;3.42;;;;;;;3.92;64.58;98771.71;1685340;84;21219;-61
2021/01/28 11:35:30;;;;;;;4.37;3.37;;;;;;;3.97;64.38;98762.86;1684963;84;21242;-61
2021/01/28 11:37:59;;;;;;;5.22;3.50;;;;;;;4.00;64.33;98755.06;1692599;84;21173;-57
2021/01/28 11:40:29;;;;;;;5.60;3.80;;;;;;;4.07;64.24;98766.95;1678536;84;21679;-58
2021/01/28 11:42:58;;;;;;;5.65;2.80;;;;;;;4.10;64.12;98766.42;1713347;82;21212;-60
2021/01/28 11:45:29;;;;;;;4.50;2.83;;;;;;;4.11;63.79;98756.76;1720141;82;21293;-58
2021/01/28 11:47:56;;;;;;;5.33;3.30;;;;;;;4.09;63.53;98750.00;1706813;84;21080;-62
2021/01/28 11:50:25;;;;;;;3.87;2.87;;;;;;;4.03;63.53;98738.41;1716322;83;20993;-57
2021/01/28 11:52:56;;;;;;;4.78;3.65;;;;;;;4.03;63.54;98729.52;1716695;83;21626;-61
2021/01/28 11:55:27;;;;;;;4.70;3.40;;;;;;;4.00;63.72;98732.72;1718541;82;21563;-58
2021/01/28 11:58:00;;;;;;;3.72;2.92;;;;;;;3.99;63.83;98727.87;1722513;82;21550;-57
2021/01/28 12:00:29;;;;;;;4.50;3.27;;;;;;;3.99;63.56;98735.95;1722979;82;21146;-55
2021/01/28 12:02:58;;;;;;;4.17;2.77;;;;;;;3.96;63.35;98723.04;1723736;82;21066;-58
2021/01/28 12:05:29;;;;;;;4.20;2.62;;;;;;;3.92;63.21;98725.97;1736574;80;21230;-57
2021/01/28 12:07:59;;;;;;;2.50;2.17;;;;;;;3.88;63.12;98720.83;1734861;81;21181;-58
2021/01/28 12:10:31;;;;;;;3.62;3.00;;;;;;;3.85;63.06;98722.17;1719874;82;21562;-58
2021/01/28 12:12:59;;;;;;;3.02;2.50;;;;;;;3.82;63.24;98731.30;1732426;82;21123;-61
2021/01/28 12:15:28;;;;;;;4.90;3.02;;;;;;;3.82;63.36;98733.98;1746978;80;21645;-57
2021/01/28 12:17:59;;;;;;;4.53;2.92;;;;;;;3.83;63.31;98721.61;1758277;80;21552;-61
2021/01/28 12:20:30;;;;;;;3.27;2.35;;;;;;;3.85;63.22;98734.28;1754667;80;21217;-61
2021/01/28 12:22:58;;;;;;;4.22;3.20;;;;;;;3.88;63.01;98730.25;1756896;80;21190;-57
2021/01/28 12:25:28;;;;;;;2.98;2.25;;;;;;;3.88;63.07;98734.28;1731341;82;21135;-56
2021/01/28 12:27:57;;;;;;;4.55;3.35;;;;;;;3.86;62.94;98731.86;1717290;81;21004;-58